Time;durP1;ratioP1;P1;durP2;ratioP2;P2;SDS_P1;SDS_P2;PMS_P1;PMS_P2;Temp;Humidity;BMP_temperature;BMP_pressure;BME280_temperature;BME280_humidity;BME280_pressure;Samples;Min_cycle;Max_cycle;Signal;HPM_P1;HPM_P2
2023/11/27 00:01:17;;;;;;;;;;;;;;;28.78;55.66;100931.22;5042066;28;67109;-34
2023/11/27 00:03:48;;;;;;;;;;;;;;;28.79;56.06;100938.28;5039211;28;70195;-33
2023/11/27 00:06:18;;;;;;;;;;;;;;;28.82;56.10;100931.66;5021665;28;66097;-34
2023/11/27 00:08:47;;;;;;;;;;;;;;;28.84;56.36;100941.19;5039785;28;69206;-33
2023/11/27 00:11:17;;;;;;;;;;;;;;;28.86;56.32;100949.09;5039798;28;66627;-33
2023/11/27 00:13:47;;;;;;;;;;;;;;;28.89;60.66;100943.25;5038956;28;70137;-34
2023/11/27 00:16:17;;;;;;;;;;;;;;;28.91;64.28;100957.41;5041522;28;66927;-34
2023/11/27 00:18:46;;;;;;;;;;;;;;;28.83;66.57;100950.31;5038453;28;70314;-34
2023/11/27 00:21:17;;;;;;;;;;;;;;;28.83;66.24;100966.53;5025167;28;66671;-34
2023/11/27 00:23:46;;;;;;;;;;;;;;;28.81;67.83;100967.78;5042142;28;69191;-35
2023/11/27 00:26:16;;;;;;;;;;;;;;;28.72;68.63;100959.03;5040071;28;67113;-36
2023/11/27 00:28:54;;;;;;;;;;;;;;;28.72;68.85;100967.97;5039674;28;69208;-34
2023/11/27 00:31:24;;;;;;;;;;;;;;;28.70;68.84;100970.03;5040050;28;66596;-34
2023/11/27 00:33:55;;;;;;;;;;;;;;;28.72;68.53;100965.28;5039330;28;70144;-34
2023/11/27 00:36:25;;;;;;;;;;;;;;;28.72;69.45;100972.50;5039864;28;66047;-33
2023/11/27 00:38:55;;;;;;;;;;;;;;;28.71;69.07;100968.16;5014092;28;69480;-35
2023/11/27 00:41:24;;;;;;;;;;;;;;;28.68;69.43;100982.91;5024148;28;65837;-35
2023/11/27 00:43:54;;;;;;;;;;;;;;;28.71;69.48;100989.75;5019145;28;69852;-35
2023/11/27 00:46:23;;;;;;;;;;;;;;;28.77;69.16;100988.94;5039239;28;66314;-34
2023/11/27 00:48:54;;;;;;;;;;;;;;;28.84;66.38;100995.19;5041554;28;69784;-34
2023/11/27 00:51:24;;;;;;;;;;;;;;;28.88;65.17;100985.66;5042839;28;67205;-34
2023/11/27 00:53:53;;;;;;;;;;;;;;;28.93;64.08;100988.56;5041294;28;70317;-35
2023/11/27 00:56:23;;;;;;;;;;;;;;;28.97;63.18;100986.28;5041164;28;66710;-34
2023/11/27 00:58:53;;;;;;;;;;;;;;;29.01;63.31;100992.94;5040507;28;70251;-34
2023/11/27 01:01:25;;;;;;;;;;;;;;;29.04;62.92;100989.03;5038471;28;66467;-33
2023/11/27 01:03:54;;;;;;;;;;;;;;;29.08;62.77;100993.81;5032868;28;71769;-34
2023/11/27 01:06:24;;;;;;;;;;;;;;;29.11;62.62;100992.56;5039643;28;65342;-33
2023/11/27 01:08:54;;;;;;;;;;;;;;;29.14;62.50;101002.97;5040457;28;70346;-34
2023/11/27 01:11:23;;;;;;;;;;;;;;;29.15;62.23;101007.34;5026094;28;66421;-33
2023/11/27 01:13:54;;;;;;;;;;;;;;;29.18;61.69;101012.34;5040829;28;69405;-34
2023/11/27 01:16:25;;;;;;;;;;;;;;;29.21;61.71;101001.13;5039859;28;66483;-34
2023/11/27 01:18:56;;;;;;;;;;;;;;;29.23;61.34;101009.84;5021834;28;69632;-34
2023/11/27 01:21:26;;;;;;;;;;;;;;;29.23;61.93;101020.66;5039442;28;65305;-34
2023/11/27 01:23:55;;;;;;;;;;;;;;;29.26;61.54;101024.81;5040573;28;69828;-34
2023/11/27 01:26:25;;;;;;;;;;;;;;;29.27;61.58;101032.69;5039253;28;66569;-34
2023/11/27 01:28:55;;;;;;;;;;;;;;;29.29;61.08;101041.44;5038589;28;69992;-34
2023/11/27 01:31:25;;;;;;;;;;;;;;;29.31;61.12;101035.81;5038798;28;66368;-34
2023/11/27 01:33:54;;;;;;;;;;;;;;;29.33;60.98;101031.03;5053837;28;70527;-34
2023/11/27 01:36:24;;;;;;;;;;;;;;;29.34;60.92;101028.16;5037010;28;65747;-34
2023/11/27 01:38:53;;;;;;;;;;;;;;;29.35;61.26;101024.41;5017004;28;69897;-33
2023/11/27 01:41:23;;;;;;;;;;;;;;;29.37;61.27;101024.22;5036904;28;66547;-37
2023/11/27 01:43:53;;;;;;;;;;;;;;;29.38;61.18;101034.78;5036971;28;70824;-34
2023/11/27 01:46:27;;;;;;;;;;;;;;;29.39;60.57;101035.63;5036053;28;66397;-34
2023/11/27 01:48:58;;;;;;;;;;;;;;;29.42;61.09;101037.06;5038666;28;69166;-33
2023/11/27 01:51:28;;;;;;;;;;;;;;;29.43;60.60;101041.47;5020893;28;66705;-34
2023/11/27 01:53:58;;;;;;;;;;;;;;;29.45;60.90;101033.97;5036487;28;70695;-34
2023/11/27 01:56:28;;;;;;;;;;;;;;;29.46;60.70;101035.63;5038538;28;65716;-34
2023/11/27 01:58:59;;;;;;;;;;;;;;;29.47;60.65;101032.72;5020522;28;70434;-33
2023/11/27 02:01:30;;;;;;;;;;;;;;;29.49;60.61;101025.25;5003069;28;67352;-34
2023/11/27 02:04:00;;;;;;;;;;;;;;;29.51;60.93;101025.88;5017736;28;70888;-34
2023/11/27 02:06:29;;;;;;;;;;;;;;;29.53;60.65;101031.06;5052499;28;65840;-34
2023/11/27 02:09:00;;;;;;;;;;;;;;;29.55;60.58;101018.16;5035153;28;69085;-34
2023/11/27 02:11:30;;;;;;;;;;;;;;;29.56;60.67;101014.41;5037850;28;65754;-34
2023/11/27 02:14:00;;;;;;;;;;;;;;;29.59;60.32;101024.84;5037932;28;70226;-34
2023/11/27 02:16:30;;;;;;;;;;;;;;;29.59;60.65;101014.84;5017911;28;66433;-35
2023/11/27 02:18:59;;;;;;;;;;;;;;;29.61;60.58;101017.34;5034629;28;70492;-34
2023/11/27 02:21:29;;;;;;;;;;;;;;;29.63;60.77;101015.28;5020620;28;67127;-33
2023/11/27 02:23:58;;;;;;;;;;;;;;;29.65;60.64;101013.22;5035129;28;69767;-34
2023/11/27 02:26:28;;;;;;;;;;;;;;;29.67;60.24;101000.34;5020164;28;66077;-34
2023/11/27 02:28:58;;;;;;;;;;;;;;;29.69;60.59;100992.81;5037841;28;70489;-34
2023/11/27 02:31:27;;;;;;;;;;;;;;;29.71;60.45;101000.72;5035222;28;66974;-33
2023/11/27 02:33:57;;;;;;;;;;;;;;;29.73;60.26;100996.78;5018743;28;70674;-34
2023/11/27 02:36:29;;;;;;;;;;;;;;;29.74;60.19;100990.31;5035692;28;67102;-34
2023/11/27 02:38:59;;;;;;;;;;;;;;;29.77;60.32;100986.38;5034256;28;70945;-34
2023/11/27 02:41:29;;;;;;;;;;;;;;;29.78;60.80;100988.88;5036193;28;66267;-34
2023/11/27 02:43:58;;;;;;;;;;;;;;;29.81;60.32;100988.47;5051557;28;69660;-33
2023/11/27 02:46:28;;;;;;;;;;;;;;;29.83;60.40;100986.34;5032910;28;66299;-34
2023/11/27 02:48:58;;;;;;;;;;;;;;;29.84;60.14;100990.75;5036914;28;69733;-34
2023/11/27 02:51:27;;;;;;;;;;;;;;;29.88;60.28;100976.78;5037120;28;65695;-35
2023/11/27 02:53:57;;;;;;;;;;;;;;;29.90;60.19;100978.25;5050113;28;70634;-34
2023/11/27 02:56:26;;;;;;;;;;;;;;;29.93;60.51;100977.00;5036922;28;66434;-33
2023/11/27 02:58:56;;;;;;;;;;;;;;;29.94;60.38;100979.47;5035872;28;69266;-35
2023/11/27 03:01:26;;;;;;;;;;;;;;;29.96;60.11;100971.97;5015384;28;66256;-34
2023/11/27 03:03:56;;;;;;;;;;;;;;;29.99;60.07;100973.44;5037408;28;70900;-34
2023/11/27 03:06:26;;;;;;;;;;;;;;;30.01;60.31;100968.66;5053605;28;66827;-33
2023/11/27 03:08:55;;;;;;;;;;;;;;;30.04;60.13;100962.81;5035202;28;71062;-35
2023/11/27 03:11:25;;;;;;;;;;;;;;;30.05;60.52;100953.66;5020124;28;66018;-34
2023/11/27 03:13:55;;;;;;;;;;;;;;;30.09;60.52;100948.63;5020219;28;70336;-33
2023/11/27 03:16:25;;;;;;;;;;;;;;;30.10;60.26;100953.84;5018069;28;66519;-33
2023/11/27 03:18:54;;;;;;;;;;;;;;;30.12;60.08;100946.34;5038409;28;70350;-35
2023/11/27 03:21:27;;;;;;;;;;;;;;;30.14;60.12;100946.94;5037996;28;65508;-34
2023/11/27 03:23:57;;;;;;;;;;;;;;;30.17;60.20;100943.84;5030138;28;70653;-33
2023/11/27 03:26:26;;;;;;;;;;;;;;;30.20;60.44;100940.69;5031153;28;65257;-34
2023/11/27 03:28:56;;;;;;;;;;;;;;;30.22;60.01;100938.63;5029637;28;71044;-34
2023/11/27 03:31:26;;;;;;;;;;;;;;;30.24;60.56;100933.00;5035709;28;67110;-34
2023/11/27 03:33:57;;;;;;;;;;;;;;;30.27;60.56;100936.09;5036696;28;69683;-35
2023/11/27 03:36:27;;;;;;;;;;;;;;;30.30;60.57;100939.44;5023392;28;66127;-35
2023/11/27 03:38:56;;;;;;;;;;;;;;;30.30;60.56;100936.72;5035438;28;70163;-34
2023/11/27 03:41:26;;;;;;;;;;;;;;;30.34;60.46;100932.53;5037743;28;67062;-35
2023/11/27 03:43:55;;;;;;;;;;;;;;;30.37;59.96;100927.53;5037477;28;70574;-35
2023/11/27 03:46:25;;;;;;;;;;;;;;;30.39;60.14;100921.91;5018225;28;66203;-34
2023/11/27 03:48:54;;;;;;;;;;;;;;;30.41;59.93;100926.03;5037696;28;70691;-35
2023/11/27 03:51:24;;;;;;;;;;;;;;;30.44;60.14;100930.19;5020439;28;66247;-35
2023/11/27 03:53:55;;;;;;;;;;;;;;;30.46;60.45;100917.28;5038136;28;69876;-35
2023/11/27 03:56:24;;;;;;;;;;;;;;;30.48;60.36;100915.22;5057351;28;66343;-34
2023/11/27 03:58:54;;;;;;;;;;;;;;;30.50;60.31;100916.63;5042733;28;71032;-33
2023/11/27 04:01:24;;;;;;;;;;;;;;;30.53;60.13;100918.06;5040134;28;66954;-33
2023/11/27 04:03:53;;;;;;;;;;;;;;;30.56;60.46;100912.22;5041944;28;69916;-34
2023/11/27 04:06:31;;;;;;;;;;;;;;;30.59;60.13;100910.94;5027706;28;66020;-34
2023/11/27 04:09:01;;;;;;;;;;;;;;;30.60;60.04;100913.44;5055124;28;70807;-34
2023/11/27 04:11:31;;;;;;;;;;;;;;;30.61;60.05;100904.28;5023887;28;67091;-34
2023/11/27 04:14:01;;;;;;;;;;;;;;;30.65;59.73;100905.50;5040612;28;70687;-34
2023/11/27 04:16:32;;;;;;;;;;;;;;;30.67;59.84;100902.56;5022017;28;66062;-34
2023/11/27 04:19:02;;;;;;;;;;;;;;;30.69;59.80;100904.00;5018947;28;69388;-33
2023/11/27 04:21:32;;;;;;;;;;;;;;;30.69;60.29;100895.88;5022309;28;66094;-36
2023/11/27 04:24:02;;;;;;;;;;;;;;;30.71;60.14;100893.81;5040560;28;69593;-33
2023/11/27 04:26:31;;;;;;;;;;;;;;;30.73;60.25;100891.72;5040338;28;65757;-35
2023/11/27 04:29:01;;;;;;;;;;;;;;;30.63;59.78;100869.69;5014793;28;70103;-33
2023/11/27 04:31:32;;;;;;;;;;;;;;;30.78;60.10;100892.91;5040553;28;66929;-34
2023/11/27 04:34:01;;;;;;;;;;;;;;;30.79;60.11;100889.19;5030597;28;70152;-34
2023/11/27 04:36:32;;;;;;;;;;;;;;;30.81;59.95;100881.69;5040768;28;66869;-34
2023/11/27 04:39:03;;;;;;;;;;;;;;;30.84;60.15;100870.41;5038960;28;69079;-34
2023/11/27 04:41:33;;;;;;;;;;;;;;;30.86;60.05;100879.97;5041115;28;65318;-35
2023/11/27 04:44:02;;;;;;;;;;;;;;;30.88;59.98;100882.47;5055307;28;69548;-35
2023/11/27 04:46:32;;;;;;;;;;;;;;;30.61;59.88;100833.06;5039820;28;67084;-34
2023/11/27 04:49:01;;;;;;;;;;;;;;;30.92;59.75;100870.13;5039003;28;70711;-33
2023/11/27 04:51:31;;;;;;;;;;;;;;;30.94;59.89;100870.75;5039169;28;66293;-34
2023/11/27 04:54:02;;;;;;;;;;;;;;;30.96;59.78;100868.66;5039128;28;70878;-34
2023/11/27 04:56:32;;;;;;;;;;;;;;;30.99;60.29;100861.97;5039299;28;65681;-35
2023/11/27 04:59:02;;;;;;;;;;;;;;;30.85;59.96;100826.84;5035154;28;70805;-35
2023/11/27 05:01:32;;;;;;;;;;;;;;;31.01;59.91;100852.56;5039097;28;66961;-34
2023/11/27 05:04:02;;;;;;;;;;;;;;;31.02;59.97;100846.09;5038544;28;68684;-36
2023/11/27 05:06:31;;;;;;;;;;;;;;;31.04;60.08;100837.75;5036931;28;66687;-34
2023/11/27 05:09:02;;;;;;;;;;;;;;;31.06;60.04;100841.03;5035272;28;70681;-36
2023/11/27 05:11:32;;;;;;;;;;;;;;;31.07;60.04;100826.47;5052036;28;66055;-35
2023/11/27 05:14:03;;;;;;;;;;;;;;;31.08;59.67;100828.94;5037765;28;70736;-34
2023/11/27 05:16:34;;;;;;;;;;;;;;;31.10;59.94;100816.00;5038674;28;66574;-34
2023/11/27 05:19:03;;;;;;;;;;;;;;;31.11;60.03;100806.81;5039356;28;70401;-34
2023/11/27 05:21:33;;;;;;;;;;;;;;;31.13;59.92;100810.13;5037463;28;67003;-36
2023/11/27 05:24:04;;;;;;;;;;;;;;;31.14;59.83;100795.53;5039413;28;69867;-35
2023/11/27 05:26:33;;;;;;;;;;;;;;;31.17;59.83;100799.66;5038813;28;66395;-34
2023/11/27 05:29:04;;;;;;;;;;;;;;;31.19;59.89;100803.00;5037530;28;70605;-33
2023/11/27 05:31:34;;;;;;;;;;;;;;;31.20;59.79;100782.97;5038708;28;66406;-33
2023/11/27 05:34:04;;;;;;;;;;;;;;;31.23;59.67;100792.53;5038417;28;69107;-34
2023/11/27 05:36:34;;;;;;;;;;;;;;;31.25;59.82;100779.59;5036335;28;66872;-35
2023/11/27 05:39:05;;;;;;;;;;;;;;;31.25;59.73;100780.41;5039170;28;70712;-35
2023/11/27 05:41:35;;;;;;;;;;;;;;;31.29;59.23;100780.81;5035693;28;66703;-35
2023/11/27 05:44:06;;;;;;;;;;;;;;;31.30;59.60;100769.72;5038147;28;70500;-34
2023/11/27 05:46:37;;;;;;;;;;;;;;;31.32;59.45;100766.81;5038758;28;65646;-35
2023/11/27 05:49:07;;;;;;;;;;;;;;;31.34;59.73;100762.81;5039444;28;70431;-35
2023/11/27 05:51:39;;;;;;;;;;;;;;;31.36;59.56;100749.03;5036866;28;65750;-34
2023/11/27 05:54:09;;;;;;;;;;;;;;;31.37;59.28;100746.13;5039394;28;69811;-35
2023/11/27 05:56:39;;;;;;;;;;;;;;;31.41;59.32;100742.97;5039947;28;66080;-33
2023/11/27 05:59:08;;;;;;;;;;;;;;;31.41;59.25;100734.81;5036540;28;70612;-35
2023/11/27 06:01:38;;;;;;;;;;;;;;;31.42;59.09;100726.44;5020691;28;66422;-34
2023/11/27 06:04:08;;;;;;;;;;;;;;;31.45;59.06;100719.75;5036979;28;70352;-36
2023/11/27 06:06:37;;;;;;;;;;;;;;;31.46;58.92;100726.84;5037763;28;66845;-34
2023/11/27 06:09:08;;;;;;;;;;;;;;;31.47;59.07;100710.34;5039264;28;71106;-34
2023/11/27 06:11:38;;;;;;;;;;;;;;;31.50;59.31;100709.88;5039125;28;65338;-35
2023/11/27 06:14:07;;;;;;;;;;;;;;;31.52;58.94;100699.63;5037498;28;70548;-36
2023/11/27 06:16:38;;;;;;;;;;;;;;;31.54;59.18;100700.25;5037969;28;67113;-36
2023/11/27 06:19:09;;;;;;;;;;;;;;;31.56;58.82;100692.69;5054031;28;69841;-35
2023/11/27 06:21:39;;;;;;;;;;;;;;;31.59;58.84;100697.69;5037941;28;65356;-34
2023/11/27 06:24:09;;;;;;;;;;;;;;;31.60;58.94;100691.19;5035410;28;70696;-34
2023/11/27 06:26:39;;;;;;;;;;;;;;;31.63;58.79;100687.19;5037732;28;65227;-34
2023/11/27 06:29:08;;;;;;;;;;;;;;;31.66;58.76;100694.03;5037484;28;70048;-35
2023/11/27 06:31:38;;;;;;;;;;;;;;;31.67;58.71;100685.66;5038750;28;65729;-35
2023/11/27 06:34:08;;;;;;;;;;;;;;;31.70;58.68;100681.66;5037857;28;69984;-33
2023/11/27 06:36:37;;;;;;;;;;;;;;;31.74;58.50;100677.44;5034311;28;66222;-34
2023/11/27 06:39:08;;;;;;;;;;;;;;;31.76;58.24;100667.16;5038874;28;69271;-34
2023/11/27 06:41:37;;;;;;;;;;;;;;;31.79;58.54;100667.56;5039259;28;66545;-34
2023/11/27 06:44:09;;;;;;;;;;;;;;;31.82;58.32;100653.53;5037109;28;70767;-34
2023/11/27 06:46:39;;;;;;;;;;;;;;;31.86;58.14;100653.88;5038146;28;66501;-34
2023/11/27 06:49:09;;;;;;;;;;;;;;;31.89;58.04;100645.28;5038344;28;69168;-35
2023/11/27 06:51:39;;;;;;;;;;;;;;;31.90;57.97;100644.22;5036590;28;66932;-35
2023/11/27 06:54:09;;;;;;;;;;;;;;;31.93;58.03;100643.78;5038143;28;69126;-36
2023/11/27 06:56:40;;;;;;;;;;;;;;;31.96;57.93;100640.63;5039834;28;66171;-36
2023/11/27 06:59:10;;;;;;;;;;;;;;;32.00;58.18;100633.66;5036304;28;69544;-36
2023/11/27 07:01:41;;;;;;;;;;;;;;;32.02;57.68;100631.53;5018849;28;65941;-34
2023/11/27 07:04:11;;;;;;;;;;;;;;;32.05;57.76;100636.50;5050503;28;70023;-34
2023/11/27 07:06:41;;;;;;;;;;;;;;;32.09;57.55;100622.44;5037048;28;66820;-34
2023/11/27 07:09:11;;;;;;;;;;;;;;;32.11;57.54;100625.75;5035752;28;71768;-33
2023/11/27 07:11:40;;;;;;;;;;;;;;;32.16;57.62;100628.59;5036883;28;65174;-34
2023/11/27 07:14:12;;;;;;;;;;;;;;;32.19;57.63;100628.13;5050864;28;71062;-33
2023/11/27 07:16:43;;;;;;;;;;;;;;;32.20;57.17;100627.06;5037860;28;67107;-34
2023/11/27 07:19:12;;;;;;;;;;;;;;;32.24;57.19;100636.41;5036570;28;70151;-35
2023/11/27 07:21:45;;;;;;;;;;;;;;;32.26;57.18;100628.81;5019543;28;65151;-36
2023/11/27 07:24:15;;;;;;;;;;;;;;;32.30;56.95;100635.44;5038109;28;70192;-34
2023/11/27 07:26:48;;;;;;;;;;;;;;;32.33;56.75;100634.97;5032233;28;66336;-34
2023/11/27 07:29:18;;;;;;;;;;;;;;;32.35;56.81;100638.28;5041001;28;69727;-33
2023/11/27 07:31:48;;;;;;;;;;;;;;;32.39;56.81;100625.06;5041644;28;66906;-34
2023/11/27 07:34:19;;;;;;;;;;;;;;;32.41;56.63;100626.47;5038698;28;71678;-36
2023/11/27 07:36:49;;;;;;;;;;;;;;;32.44;56.53;100633.31;5038672;28;65023;-34
2023/11/27 07:39:19;;;;;;;;;;;;;;;32.45;56.40;100630.34;5039499;28;69225;-33
2023/11/27 07:41:49;;;;;;;;;;;;;;;32.50;56.56;100632.41;5020552;28;66398;-34
2023/11/27 07:44:19;;;;;;;;;;;;;;;32.54;56.39;100633.59;5041226;28;70383;-35
2023/11/27 07:46:49;;;;;;;;;;;;;;;32.56;56.34;100633.34;5041005;28;66980;-33
2023/11/27 07:49:19;;;;;;;;;;;;;;;32.58;56.04;100636.66;5039341;28;70082;-34
2023/11/27 07:51:48;;;;;;;;;;;;;;;32.60;55.96;100632.63;5037339;28;65998;-34
2023/11/27 07:54:19;;;;;;;;;;;;;;;32.63;56.05;100634.88;5054916;28;69803;-34
2023/11/27 07:56:48;;;;;;;;;;;;;;;32.67;55.83;100635.22;5038516;28;66803;-34
2023/11/27 07:59:18;;;;;;;;;;;;;;;32.69;56.16;100633.91;5040450;28;69945;-34
2023/11/27 08:01:49;;;;;;;;;;;;;;;32.74;55.90;100629.66;5040119;28;67032;-33
2023/11/27 08:04:19;;;;;;;;;;;;;;;32.75;55.64;100623.16;5035693;28;70784;-35
2023/11/27 08:06:49;;;;;;;;;;;;;;;32.78;55.53;100622.69;5040136;28;66572;-35
2023/11/27 08:09:19;;;;;;;;;;;;;;;32.80;55.45;100615.94;5039234;28;70852;-34
2023/11/27 08:11:49;;;;;;;;;;;;;;;32.83;55.71;100626.31;5037099;28;66064;-36
2023/11/27 08:14:18;;;;;;;;;;;;;;;32.86;55.50;100622.31;5036293;28;70038;-34
2023/11/27 08:16:49;;;;;;;;;;;;;;;32.89;55.40;100628.06;5039761;28;66305;-36
2023/11/27 08:19:20;;;;;;;;;;;;;;;32.91;55.46;100631.38;5038875;28;69933;-34
2023/11/27 08:21:50;;;;;;;;;;;;;;;32.93;55.37;100629.25;5038944;28;66701;-34
2023/11/27 08:24:20;;;;;;;;;;;;;;;32.97;55.08;100634.22;5040750;28;70461;-36
2023/11/27 08:26:50;;;;;;;;;;;;;;;32.99;55.12;100632.91;5038871;28;66689;-34
2023/11/27 08:29:21;;;;;;;;;;;;;;;33.03;55.13;100641.44;5041064;28;69459;-35
2023/11/27 08:31:52;;;;;;;;;;;;;;;33.05;54.85;100642.03;5040466;28;66624;-34
2023/11/27 08:34:22;;;;;;;;;;;;;;;33.08;54.99;100638.81;5035963;28;70679;-33
2023/11/27 08:36:52;;;;;;;;;;;;;;;33.10;55.01;100651.09;5038604;28;66182;-33
2023/11/27 08:39:21;;;;;;;;;;;;;;;33.13;54.87;100649.78;5037536;28;70344;-34
2023/11/27 08:41:51;;;;;;;;;;;;;;;33.17;54.74;100650.94;5038204;28;66787;-33
2023/11/27 08:44:21;;;;;;;;;;;;;;;33.20;54.62;100655.09;5038298;28;70388;-35
2023/11/27 08:46:50;;;;;;;;;;;;;;;33.23;54.78;100655.41;5039465;28;66667;-34
2023/11/27 08:49:21;;;;;;;;;;;;;;;33.26;54.54;100654.94;5038556;28;69611;-34
2023/11/27 08:51:50;;;;;;;;;;;;;;;33.28;54.30;100650.09;5041064;28;66300;-34
2023/11/27 08:54:20;;;;;;;;;;;;;;;33.30;54.23;100658.84;5039004;28;70185;-34
2023/11/27 08:56:51;;;;;;;;;;;;;;;33.32;54.46;100664.00;5038636;28;66202;-34
2023/11/27 08:59:21;;;;;;;;;;;;;;;33.34;54.19;100662.69;5036497;28;69212;-35
2023/11/27 09:01:51;;;;;;;;;;;;;;;33.36;54.26;100666.00;5040806;28;67021;-33
2023/11/27 09:04:22;;;;;;;;;;;;;;;33.38;54.19;100663.06;5037531;28;71647;-33
2023/11/27 09:06:52;;;;;;;;;;;;;;;33.38;54.14;100658.44;5039086;28;65617;-35
2023/11/27 09:09:23;;;;;;;;;;;;;;;33.41;53.94;100664.47;5039463;28;70596;-35
2023/11/27 09:11:54;;;;;;;;;;;;;;;33.43;54.03;100665.03;5036486;28;66988;-34
2023/11/27 09:14:24;;;;;;;;;;;;;;;33.46;53.93;100661.81;5037230;28;69748;-33
2023/11/27 09:16:54;;;;;;;;;;;;;;;33.47;53.98;100660.78;5036803;28;65456;-45
2023/11/27 09:19:26;;;;;;;;;;;;;;;33.47;53.83;100666.22;5037903;28;70731;-34
2023/11/27 09:21:59;;;;;;;;;;;;;;;33.49;53.54;100669.50;5038749;28;66599;-35
2023/11/27 09:24:28;;;;;;;;;;;;;;;33.05;55.30;100663.75;5033810;28;70290;-34
2023/11/27 09:27:01;;;;;;;;;;;;;;;32.81;56.96;100671.91;5032399;28;66074;-34
2023/11/27 09:29:31;;;;;;;;;;;;;;;32.69;57.27;100676.53;5034582;28;69954;-34
2023/11/27 09:32:04;;;;;;;;;;;;;;;32.63;57.69;100672.06;5034214;28;66997;-34
2023/11/27 09:34:34;;;;;;;;;;;;;;;32.56;57.73;100676.78;5034302;28;71176;-34
2023/11/27 09:37:03;;;;;;;;;;;;;;;32.56;57.98;100676.78;5034162;28;65414;-36
2023/11/27 09:39:34;;;;;;;;;;;;;;;32.53;58.35;100672.66;5035251;28;69394;-35
2023/11/27 09:42:04;;;;;;;;;;;;;;;32.86;57.74;100682.91;5035992;28;65696;-35
2023/11/27 09:44:36;;;;;;;;;;;;;;;33.04;56.83;100681.13;5039334;28;69511;-35
2023/11/27 09:47:08;;;;;;;;;;;;;;;33.15;56.48;100685.69;5035438;28;66193;-34
2023/11/27 09:49:41;;;;;;;;;;;;;;;33.20;56.29;100688.53;5036678;28;70360;-36
2023/11/27 09:52:15;;;;;;;;;;;;;;;33.25;56.16;100685.09;5036259;28;66613;-34
2023/11/27 09:54:50;;;;;;;;;;;;;;;33.27;56.13;100700.09;5036249;28;69963;-34
2023/11/27 09:57:22;;;;;;;;;;;;;;;33.30;56.07;100693.34;5036239;28;66776;-35
2023/11/27 09:59:52;;;;;;;;;;;;;;;33.31;56.15;100695.81;5034920;28;70046;-35
2023/11/27 10:02:22;;;;;;;;;;;;;;;33.33;56.14;100703.75;5036921;28;66662;-34
2023/11/27 10:04:53;;;;;;;;;;;;;;;33.32;55.88;100708.34;5035418;28;70329;-33
2023/11/27 10:07:23;;;;;;;;;;;;;;;33.33;55.79;100704.56;5034860;28;65110;-36
2023/11/27 10:09:52;;;;;;;;;;;;;;;33.33;56.02;100699.13;5038773;28;68743;-34
2023/11/27 10:12:28;;;;;;;;;;;;;;;33.33;55.70;100715.44;5039475;28;66646;-34
2023/11/27 10:15:02;;;;;;;;;;;;;;;33.32;56.10;100724.66;5038977;28;68981;-33
2023/11/27 10:17:33;;;;;;;;;;;;;;;32.89;57.47;100725.88;5036054;28;65261;-33
2023/11/27 10:20:04;;;;;;;;;;;;;;;32.68;58.20;100723.75;5038493;28;69852;-35
2023/11/27 10:22:35;;;;;;;;;;;;;;;32.63;58.64;100729.91;5036841;28;66551;-34
2023/11/27 10:25:07;;;;;;;;;;;;;;;32.55;59.04;100734.88;5036306;28;70359;-34
2023/11/27 10:27:37;;;;;;;;;;;;;;;32.45;59.49;100735.41;5014179;28;67946;-35
2023/11/27 10:30:17;;;;;;;;;;;;;;;32.46;59.74;100743.38;5037064;28;70431;-35
2023/11/27 10:32:47;;;;;;;;;;;;;;;32.41;60.02;100740.50;5036593;28;66560;-36
2023/11/27 10:35:17;;;;;;;;;;;;;;;32.34;60.40;100745.19;5035888;28;70600;-35
2023/11/27 10:37:49;;;;;;;;;;;;;;;32.36;60.67;100755.84;5037463;28;66383;-35
2023/11/27 10:40:20;;;;;;;;;;;;;;;32.33;60.54;100754.41;5035560;28;69632;-34
2023/11/27 10:42:50;;;;;;;;;;;;;;;32.31;60.97;100761.94;5036394;28;66100;-34
2023/11/27 10:45:20;;;;;;;;;;;;;;;32.30;61.05;100765.72;5039623;28;70313;-34
2023/11/27 10:47:51;;;;;;;;;;;;;;;32.27;61.11;100771.63;5038511;28;65403;-35
2023/11/27 10:50:25;;;;;;;;;;;;;;;32.24;61.50;100769.38;5036932;28;69516;-34
2023/11/27 10:52:56;;;;;;;;;;;;;;;32.22;61.45;100779.63;5037611;28;67105;-34
2023/11/27 10:55:27;;;;;;;;;;;;;;;32.47;60.60;100783.03;5035657;28;69465;-35
2023/11/27 10:57:59;;;;;;;;;;;;;;;32.62;59.54;100779.03;5041807;28;66816;-37
2023/11/27 11:00:29;;;;;;;;;;;;;;;32.71;58.71;100783.06;5040473;28;69996;-35
2023/11/27 11:03:03;;;;;;;;;;;;;;;32.77;58.58;100790.28;5044185;28;65482;-33
2023/11/27 11:05:53;;;;;;;;;;;;;;;32.81;58.21;100799.59;5041289;28;69749;-34
2023/11/27 11:08:26;;;;;;;;;;;;;;;32.85;57.93;100797.25;5043854;28;65476;-34
2023/11/27 11:10:58;;;;;;;;;;;;;;;32.86;58.26;100807.88;5042093;28;70683;-34
2023/11/27 11:13:27;;;;;;;;;;;;;;;32.87;58.50;100806.78;5041853;28;66410;-34
2023/11/27 11:16:14;;;;;;;;;;;;;;;32.88;58.42;100808.47;5044205;28;70919;-34
2023/11/27 11:18:51;;;;;;;;;;;;;;;32.89;58.19;100815.53;5041479;28;66535;-35
2023/11/27 11:21:21;;;;;;;;;;;;;;;32.90;57.96;100814.50;5043618;28;69152;-34
2023/11/27 11:23:57;;;;;;;;;;;;;;;32.90;58.11;100814.50;5040556;28;66027;-34
2023/11/27 11:27:02;;;;;;;;;;;;;;;32.90;58.19;100813.66;5057119;28;70030;-34
2023/11/27 11:29:33;;;;;;;;;;;;;;;32.89;58.15;100822.88;5043325;28;67155;-34
2023/11/27 11:32:08;;;;;;;;;;;;;;;32.88;57.84;100816.63;5042345;28;69874;-35
2023/11/27 11:34:38;;;;;;;;;;;;;;;32.87;57.87;100820.38;5040887;28;65632;-35
2023/11/27 11:37:32;;;;;;;;;;;;;;;32.87;58.02;100820.38;5040985;28;70342;-33
2023/11/27 11:39:59;;;;;;;;;;;;;;;32.85;58.00;100833.38;5041820;28;67839;-34
2023/11/27 11:42:32;;;;;;;;;;;;;;;32.81;58.15;100815.88;5023086;28;69714;-35
2023/11/27 11:45:02;;;;;;;;;;;;;;;32.82;58.20;100823.00;5042019;28;66096;-34
2023/11/27 11:50:43;;;;;;;;;;;;;;;32.78;58.28;100832.66;5039248;28;66865;-34
2023/11/27 11:53:30;;;;;;;;;;;;;;;32.78;58.28;100837.28;5042952;28;68883;-35
2023/11/27 11:56:20;;;;;;;;;;;;;;;32.76;58.56;100842.91;5040724;28;66247;-34
2023/11/27 11:58:58;;;;;;;;;;;;;;;32.74;58.63;100839.63;5039224;28;69985;-35
2023/11/27 12:01:32;;;;;;;;;;;;;;;32.73;58.50;100851.53;5043523;28;66302;-34
2023/11/27 12:04:07;;;;;;;;;;;;;;;32.71;58.96;100840.09;5041847;28;70438;-36
2023/11/27 12:06:41;;;;;;;;;;;;;;;32.69;59.29;100858.53;5041870;28;66990;-34
2023/11/27 12:09:12;;;;;;;;;;;;;;;32.69;59.12;100855.81;5045489;28;70626;-35
2023/11/27 12:11:42;;;;;;;;;;;;;;;32.67;58.97;100852.47;5041682;28;66294;-34
2023/11/27 12:14:14;;;;;;;;;;;;;;;32.66;59.06;100861.69;5040913;28;70014;-36
2023/11/27 12:16:46;;;;;;;;;;;;;;;32.65;59.29;100865.47;5056842;28;65989;-34
2023/11/27 12:19:19;;;;;;;;;;;;;;;32.63;59.08;100868.44;5042493;28;69798;-36
2023/11/27 12:21:52;;;;;;;;;;;;;;;32.63;59.19;100862.16;5043219;28;65455;-35
2023/11/27 12:24:21;;;;;;;;;;;;;;;32.61;59.40;100875.16;5041740;28;69662;-35
2023/11/27 12:26:54;;;;;;;;;;;;;;;32.59;59.39;100888.94;5038256;28;67030;-34
2023/11/27 12:29:26;;;;;;;;;;;;;;;32.58;59.43;100886.47;5039355;28;70782;-34
2023/11/27 12:31:56;;;;;;;;;;;;;;;32.58;59.48;100902.78;5042924;28;65798;-36
2023/11/27 12:34:26;;;;;;;;;;;;;;;32.21;62.34;100908.28;5023311;28;69764;-35
2023/11/27 12:36:56;;;;;;;;;;;;;;;32.37;61.12;100913.03;5043013;28;66981;-34
2023/11/27 12:39:26;;;;;;;;;;;;;;;32.42;60.30;100915.06;5023756;28;69905;-34
2023/11/27 12:42:02;;;;;;;;;;;;;;;32.43;60.12;100923.00;5043159;28;65903;-34
2023/11/27 12:44:31;;;;;;;;;;;;;;;32.43;59.85;100923.00;5040542;28;70637;-36
2023/11/27 12:47:05;;;;;;;;;;;;;;;32.44;60.11;100930.06;5039967;28;66972;-34
2023/11/27 12:49:35;;;;;;;;;;;;;;;32.32;61.87;100923.78;5055112;28;69653;-34
2023/11/27 12:52:09;;;;;;;;;;;;;;;32.13;63.69;100927.56;5040697;28;65620;-34
2023/11/27 12:54:40;;;;;;;;;;;;;;;31.99;64.08;100927.72;5042345;28;69396;-34
2023/11/27 12:57:10;;;;;;;;;;;;;;;32.10;63.11;100922.59;5046104;28;65627;-34